sensor_id;sensor_type;location;lat;lon;timestamp;P1;durP1;ratioP1;P2;durP2;ratioP2
8716;SDS011;4395;48.554;8.820;2023-10-19T00:01:08;10.68;;;9.57;;
8716;SDS011;4395;48.554;8.820;2023-10-19T00:03:11;11.63;;;10.52;;
8716;SDS011;4395;48.554;8.820;2023-10-19T00:05:15;9.77;;;8.77;;
8716;SDS011;4395;48.554;8.820;2023-10-19T00:07:18;11.38;;;9.43;;
8716;SDS011;4395;48.554;8.820;2023-10-19T00:09:21;11.40;;;9.50;;
8716;SDS011;4395;48.554;8.820;2023-10-19T00:11:23;10.18;;;9.25;;
8716;SDS011;4395;48.554;8.820;2023-10-19T00:13:28;9.52;;;8.57;;
8716;SDS011;4395;48.554;8.820;2023-10-19T00:15:32;8.77;;;7.97;;
8716;SDS011;4395;48.554;8.820;2023-10-19T00:17:41;8.80;;;7.93;;
8716;SDS011;4395;48.554;8.820;2023-10-19T00:19:46;8.07;;;7.28;;
8716;SDS011;4395;48.554;8.820;2023-10-19T00:22:18;8.73;;;7.93;;
8716;SDS011;4395;48.554;8.820;2023-10-19T00:24:22;7.20;;;6.50;;
8716;SDS011;4395;48.554;8.820;2023-10-19T00:26:25;6.65;;;6.00;;
8716;SDS011;4395;48.554;8.820;2023-10-19T00:28:34;6.53;;;5.60;;
8716;SDS011;4395;48.554;8.820;2023-10-19T00:30:41;6.85;;;5.90;;
8716;SDS011;4395;48.554;8.820;2023-10-19T00:32:44;6.47;;;5.85;;
8716;SDS011;4395;48.554;8.820;2023-10-19T00:34:47;6.85;;;6.15;;
8716;SDS011;4395;48.554;8.820;2023-10-19T00:36:54;10.75;;;9.40;;
8716;SDS011;4395;48.554;8.820;2023-10-19T00:38:58;11.65;;;9.00;;
8716;SDS011;4395;48.554;8.820;2023-10-19T00:41:03;7.40;;;6.47;;
8716;SDS011;4395;48.554;8.820;2023-10-19T00:43:07;6.55;;;5.72;;
8716;SDS011;4395;48.554;8.820;2023-10-19T00:45:13;10.80;;;9.70;;
8716;SDS011;4395;48.554;8.820;2023-10-19T00:47:18;8.25;;;7.45;;
8716;SDS011;4395;48.554;8.820;2023-10-19T00:49:25;10.35;;;9.30;;
8716;SDS011;4395;48.554;8.820;2023-10-19T00:51:28;10.65;;;9.55;;
8716;SDS011;4395;48.554;8.820;2023-10-19T00:53:43;10.80;;;8.88;;
8716;SDS011;4395;48.554;8.820;2023-10-19T00:55:46;7.68;;;6.68;;
8716;SDS011;4395;48.554;8.820;2023-10-19T00:57:49;7.63;;;6.78;;
8716;SDS011;4395;48.554;8.820;2023-10-19T00:59:53;7.80;;;6.97;;
8716;SDS011;4395;48.554;8.820;2023-10-19T01:02:09;9.20;;;8.23;;
8716;SDS011;4395;48.554;8.820;2023-10-19T01:04:24;10.27;;;7.90;;
8716;SDS011;4395;48.554;8.820;2023-10-19T01:06:33;9.85;;;8.38;;
8716;SDS011;4395;48.554;8.820;2023-10-19T01:08:37;12.75;;;9.60;;
8716;SDS011;4395;48.554;8.820;2023-10-19T01:10:47;11.63;;;9.60;;
8716;SDS011;4395;48.554;8.820;2023-10-19T01:12:53;7.38;;;6.25;;
8716;SDS011;4395;48.554;8.820;2023-10-19T01:15:01;5.68;;;4.85;;
8716;SDS011;4395;48.554;8.820;2023-10-19T01:17:08;5.60;;;5.05;;
8716;SDS011;4395;48.554;8.820;2023-10-19T01:19:12;6.60;;;5.93;;
8716;SDS011;4395;48.554;8.820;2023-10-19T01:21:22;5.95;;;5.43;;
8716;SDS011;4395;48.554;8.820;2023-10-19T01:23:30;5.10;;;4.60;;
8716;SDS011;4395;48.554;8.820;2023-10-19T01:25:42;5.18;;;4.65;;
8716;SDS011;4395;48.554;8.820;2023-10-19T01:27:47;5.68;;;4.32;;
8716;SDS011;4395;48.554;8.820;2023-10-19T01:29:50;5.57;;;5.00;;
8716;SDS011;4395;48.554;8.820;2023-10-19T01:32:02;5.85;;;5.15;;
8716;SDS011;4395;48.554;8.820;2023-10-19T01:34:09;7.10;;;6.18;;
8716;SDS011;4395;48.554;8.820;2023-10-19T01:36:12;8.15;;;6.60;;
8716;SDS011;4395;48.554;8.820;2023-10-19T01:38:26;6.95;;;6.00;;
8716;SDS011;4395;48.554;8.820;2023-10-19T01:40:33;5.60;;;5.10;;
8716;SDS011;4395;48.554;8.820;2023-10-19T01:42:36;5.95;;;5.18;;
8716;SDS011;4395;48.554;8.820;2023-10-19T01:44:39;6.05;;;5.45;;
8716;SDS011;4395;48.554;8.820;2023-10-19T01:46:41;6.18;;;5.57;;
8716;SDS011;4395;48.554;8.820;2023-10-19T01:48:48;8.05;;;5.28;;
8716;SDS011;4395;48.554;8.820;2023-10-19T01:50:51;6.43;;;5.68;;
8716;SDS011;4395;48.554;8.820;2023-10-19T01:52:54;6.28;;;5.18;;
8716;SDS011;4395;48.554;8.820;2023-10-19T01:54:56;7.07;;;5.25;;
8716;SDS011;4395;48.554;8.820;2023-10-19T01:57:05;6.47;;;5.13;;
8716;SDS011;4395;48.554;8.820;2023-10-19T01:59:09;6.18;;;5.47;;
8716;SDS011;4395;48.554;8.820;2023-10-19T02:01:13;7.32;;;5.63;;
8716;SDS011;4395;48.554;8.820;2023-10-19T02:03:22;7.15;;;5.05;;
8716;SDS011;4395;48.554;8.820;2023-10-19T02:05:27;7.28;;;5.00;;
8716;SDS011;4395;48.554;8.820;2023-10-19T02:07:34;7.30;;;5.55;;
8716;SDS011;4395;48.554;8.820;2023-10-19T02:09:37;7.53;;;5.05;;
8716;SDS011;4395;48.554;8.820;2023-10-19T02:11:40;6.30;;;5.05;;
8716;SDS011;4395;48.554;8.820;2023-10-19T02:13:46;6.80;;;4.95;;
8716;SDS011;4395;48.554;8.820;2023-10-19T02:15:48;5.68;;;5.05;;
8716;SDS011;4395;48.554;8.820;2023-10-19T02:17:52;9.93;;;6.03;;
8716;SDS011;4395;48.554;8.820;2023-10-19T02:19:57;6.88;;;5.72;;
8716;SDS011;4395;48.554;8.820;2023-10-19T02:22:02;6.20;;;5.30;;
8716;SDS011;4395;48.554;8.820;2023-10-19T02:24:06;6.20;;;5.60;;
8716;SDS011;4395;48.554;8.820;2023-10-19T02:26:09;6.40;;;5.80;;
8716;SDS011;4395;48.554;8.820;2023-10-19T02:28:14;9.90;;;6.07;;
8716;SDS011;4395;48.554;8.820;2023-10-19T02:30:18;6.28;;;5.68;;
8716;SDS011;4395;48.554;8.820;2023-10-19T02:32:20;7.03;;;5.88;;
8716;SDS011;4395;48.554;8.820;2023-10-19T02:34:23;6.93;;;5.30;;
8716;SDS011;4395;48.554;8.820;2023-10-19T02:36:27;8.52;;;5.93;;
8716;SDS011;4395;48.554;8.820;2023-10-19T02:38:32;7.93;;;5.80;;
8716;SDS011;4395;48.554;8.820;2023-10-19T02:40:34;7.35;;;6.13;;
8716;SDS011;4395;48.554;8.820;2023-10-19T02:42:39;7.20;;;5.75;;
8716;SDS011;4395;48.554;8.820;2023-10-19T02:44:41;7.53;;;5.90;;
8716;SDS011;4395;48.554;8.820;2023-10-19T02:46:45;7.95;;;5.22;;
8716;SDS011;4395;48.554;8.820;2023-10-19T02:48:48;6.38;;;5.78;;
8716;SDS011;4395;48.554;8.820;2023-10-19T02:50:51;9.75;;;6.00;;
8716;SDS011;4395;48.554;8.820;2023-10-19T02:52:53;6.82;;;5.90;;
8716;SDS011;4395;48.554;8.820;2023-10-19T02:54:55;8.98;;;6.03;;
8716;SDS011;4395;48.554;8.820;2023-10-19T02:56:58;6.25;;;5.57;;
8716;SDS011;4395;48.554;8.820;2023-10-19T02:59:02;5.57;;;5.03;;
8716;SDS011;4395;48.554;8.820;2023-10-19T03:01:10;6.15;;;5.55;;
8716;SDS011;4395;48.554;8.820;2023-10-19T03:03:16;7.65;;;6.18;;
8716;SDS011;4395;48.554;8.820;2023-10-19T03:05:19;6.28;;;5.68;;
8716;SDS011;4395;48.554;8.820;2023-10-19T03:07:21;6.30;;;5.25;;
8716;SDS011;4395;48.554;8.820;2023-10-19T03:09:25;5.85;;;5.18;;
8716;SDS011;4395;48.554;8.820;2023-10-19T03:11:31;8.02;;;5.75;;
8716;SDS011;4395;48.554;8.820;2023-10-19T03:13:34;6.68;;;4.75;;
8716;SDS011;4395;48.554;8.820;2023-10-19T03:15:36;8.45;;;5.63;;
8716;SDS011;4395;48.554;8.820;2023-10-19T03:17:44;5.75;;;5.15;;
8716;SDS011;4395;48.554;8.820;2023-10-19T03:19:47;6.80;;;5.88;;
8716;SDS011;4395;48.554;8.820;2023-10-19T03:21:50;6.22;;;5.63;;
8716;SDS011;4395;48.554;8.820;2023-10-19T03:23:52;7.70;;;6.60;;
8716;SDS011;4395;48.554;8.820;2023-10-19T03:25:57;6.43;;;5.45;;
8716;SDS011;4395;48.554;8.820;2023-10-19T03:28:18;7.85;;;6.38;;
8716;SDS011;4395;48.554;8.820;2023-10-19T03:32:42;7.60;;;6.45;;
8716;SDS011;4395;48.554;8.820;2023-10-19T03:34:45;7.00;;;5.10;;
8716;SDS011;4395;48.554;8.820;2023-10-19T03:36:52;7.88;;;5.20;;
8716;SDS011;4395;48.554;8.820;2023-10-19T03:38:56;5.85;;;5.25;;
8716;SDS011;4395;48.554;8.820;2023-10-19T03:41:06;8.48;;;5.80;;
8716;SDS011;4395;48.554;8.820;2023-10-19T03:43:08;6.63;;;5.70;;
8716;SDS011;4395;48.554;8.820;2023-10-19T03:45:18;5.53;;;4.90;;
8716;SDS011;4395;48.554;8.820;2023-10-19T03:47:23;6.50;;;5.15;;
8716;SDS011;4395;48.554;8.820;2023-10-19T03:49:37;8.50;;;5.75;;
8716;SDS011;4395;48.554;8.820;2023-10-19T03:51:42;8.32;;;6.13;;
8716;SDS011;4395;48.554;8.820;2023-10-19T03:53:59;6.57;;;5.07;;
8716;SDS011;4395;48.554;8.820;2023-10-19T03:56:04;6.13;;;5.10;;
8716;SDS011;4395;48.554;8.820;2023-10-19T03:58:12;6.25;;;5.00;;
8716;SDS011;4395;48.554;8.820;2023-10-19T04:00:16;7.40;;;4.95;;
8716;SDS011;4395;48.554;8.820;2023-10-19T04:02:20;5.25;;;4.75;;
8716;SDS011;4395;48.554;8.820;2023-10-19T04:04:24;6.97;;;5.20;;
8716;SDS011;4395;48.554;8.820;2023-10-19T04:06:26;7.68;;;5.15;;
8716;SDS011;4395;48.554;8.820;2023-10-19T04:08:30;6.00;;;5.03;;
8716;SDS011;4395;48.554;8.820;2023-10-19T04:10:38;13.57;;;8.20;;
8716;SDS011;4395;48.554;8.820;2023-10-19T04:12:46;8.13;;;7.32;;
8716;SDS011;4395;48.554;8.820;2023-10-19T04:14:47;13.40;;;11.88;;
8716;SDS011;4395;48.554;8.820;2023-10-19T04:16:50;13.27;;;11.88;;
8716;SDS011;4395;48.554;8.820;2023-10-19T04:18:53;12.57;;;10.18;;
8716;SDS011;4395;48.554;8.820;2023-10-19T04:20:56;7.70;;;6.88;;
8716;SDS011;4395;48.554;8.820;2023-10-19T04:22:59;7.88;;;6.30;;
8716;SDS011;4395;48.554;8.820;2023-10-19T04:25:09;8.60;;;6.13;;
8716;SDS011;4395;48.554;8.820;2023-10-19T04:27:13;6.65;;;5.90;;
8716;SDS011;4395;48.554;8.820;2023-10-19T04:29:16;9.90;;;6.32;;
8716;SDS011;4395;48.554;8.820;2023-10-19T04:31:22;8.25;;;6.70;;
8716;SDS011;4395;48.554;8.820;2023-10-19T04:33:25;7.32;;;5.32;;
8716;SDS011;4395;48.554;8.820;2023-10-19T04:35:29;7.30;;;5.60;;
8716;SDS011;4395;48.554;8.820;2023-10-19T04:37:33;6.68;;;5.72;;
8716;SDS011;4395;48.554;8.820;2023-10-19T04:39:36;10.05;;;6.10;;
8716;SDS011;4395;48.554;8.820;2023-10-19T04:41:40;6.25;;;5.57;;
8716;SDS011;4395;48.554;8.820;2023-10-19T04:43:46;6.47;;;5.68;;
8716;SDS011;4395;48.554;8.820;2023-10-19T04:45:52;7.53;;;5.80;;
8716;SDS011;4395;48.554;8.820;2023-10-19T04:47:55;6.22;;;5.35;;
8716;SDS011;4395;48.554;8.820;2023-10-19T04:49:58;6.68;;;5.30;;
8716;SDS011;4395;48.554;8.820;2023-10-19T04:52:00;6.80;;;6.05;;
8716;SDS011;4395;48.554;8.820;2023-10-19T04:54:04;8.40;;;6.65;;
8716;SDS011;4395;48.554;8.820;2023-10-19T04:56:10;8.63;;;6.70;;
8716;SDS011;4395;48.554;8.820;2023-10-19T04:58:15;6.60;;;5.97;;
8716;SDS011;4395;48.554;8.820;2023-10-19T05:00:18;8.00;;;5.60;;
8716;SDS011;4395;48.554;8.820;2023-10-19T05:02:23;7.25;;;5.65;;
8716;SDS011;4395;48.554;8.820;2023-10-19T05:04:26;8.00;;;6.10;;
8716;SDS011;4395;48.554;8.820;2023-10-19T05:06:31;6.80;;;5.90;;
8716;SDS011;4395;48.554;8.820;2023-10-19T05:08:34;6.43;;;5.78;;
8716;SDS011;4395;48.554;8.820;2023-10-19T05:10:37;7.38;;;5.82;;
8716;SDS011;4395;48.554;8.820;2023-10-19T05:12:43;9.20;;;5.68;;
8716;SDS011;4395;48.554;8.820;2023-10-19T05:14:48;5.95;;;5.35;;
8716;SDS011;4395;48.554;8.820;2023-10-19T05:16:51;6.00;;;5.40;;
8716;SDS011;4395;48.554;8.820;2023-10-19T05:18:54;7.22;;;5.63;;
8716;SDS011;4395;48.554;8.820;2023-10-19T05:20:57;6.57;;;5.30;;
8716;SDS011;4395;48.554;8.820;2023-10-19T05:23:00;7.47;;;5.43;;
8716;SDS011;4395;48.554;8.820;2023-10-19T05:25:03;5.55;;;5.05;;
8716;SDS011;4395;48.554;8.820;2023-10-19T05:27:09;7.18;;;5.55;;
8716;SDS011;4395;48.554;8.820;2023-10-19T05:29:13;6.35;;;5.68;;
8716;SDS011;4395;48.554;8.820;2023-10-19T05:31:18;10.48;;;5.53;;
8716;SDS011;4395;48.554;8.820;2023-10-19T05:33:21;6.80;;;6.10;;
8716;SDS011;4395;48.554;8.820;2023-10-19T05:35:25;8.20;;;5.82;;
8716;SDS011;4395;48.554;8.820;2023-10-19T05:37:27;6.35;;;4.95;;
8716;SDS011;4395;48.554;8.820;2023-10-19T05:39:30;8.45;;;5.35;;
8716;SDS011;4395;48.554;8.820;2023-10-19T05:41:35;5.90;;;4.90;;
8716;SDS011;4395;48.554;8.820;2023-10-19T05:43:39;8.23;;;4.95;;
8716;SDS011;4395;48.554;8.820;2023-10-19T05:45:42;7.03;;;5.00;;
8716;SDS011;4395;48.554;8.820;2023-10-19T05:47:46;6.68;;;5.35;;
8716;SDS011;4395;48.554;8.820;2023-10-19T05:49:48;6.60;;;4.72;;
8716;SDS011;4395;48.554;8.820;2023-10-19T05:51:51;5.85;;;5.25;;
8716;SDS011;4395;48.554;8.820;2023-10-19T05:53:54;5.63;;;4.65;;
8716;SDS011;4395;48.554;8.820;2023-10-19T05:56:03;5.97;;;4.20;;
8716;SDS011;4395;48.554;8.820;2023-10-19T05:58:08;5.50;;;4.45;;
8716;SDS011;4395;48.554;8.820;2023-10-19T06:00:11;4.82;;;4.40;;
8716;SDS011;4395;48.554;8.820;2023-10-19T06:02:13;5.70;;;4.35;;
8716;SDS011;4395;48.554;8.820;2023-10-19T06:04:18;5.15;;;4.07;;
8716;SDS011;4395;48.554;8.820;2023-10-19T06:06:22;5.43;;;4.40;;
8716;SDS011;4395;48.554;8.820;2023-10-19T06:08:25;4.75;;;4.18;;
8716;SDS011;4395;48.554;8.820;2023-10-19T06:10:28;5.53;;;4.50;;
8716;SDS011;4395;48.554;8.820;2023-10-19T06:12:31;4.97;;;4.30;;
8716;SDS011;4395;48.554;8.820;2023-10-19T06:14:34;4.47;;;3.63;;
8716;SDS011;4395;48.554;8.820;2023-10-19T06:16:38;4.38;;;3.97;;
8716;SDS011;4395;48.554;8.820;2023-10-19T06:18:42;5.00;;;3.97;;
8716;SDS011;4395;48.554;8.820;2023-10-19T06:20:47;7.40;;;4.18;;
8716;SDS011;4395;48.554;8.820;2023-10-19T06:22:53;5.00;;;3.92;;
8716;SDS011;4395;48.554;8.820;2023-10-19T06:24:57;4.95;;;3.80;;
8716;SDS011;4395;48.554;8.820;2023-10-19T06:27:00;5.20;;;4.25;;
8716;SDS011;4395;48.554;8.820;2023-10-19T06:29:03;5.13;;;4.30;;
8716;SDS011;4395;48.554;8.820;2023-10-19T06:31:06;4.70;;;3.95;;
8716;SDS011;4395;48.554;8.820;2023-10-19T06:33:10;5.68;;;4.60;;
8716;SDS011;4395;48.554;8.820;2023-10-19T06:35:13;5.38;;;4.60;;
8716;SDS011;4395;48.554;8.820;2023-10-19T06:37:17;6.40;;;4.53;;
8716;SDS011;4395;48.554;8.820;2023-10-19T06:39:20;5.95;;;4.97;;
8716;SDS011;4395;48.554;8.820;2023-10-19T06:41:24;5.70;;;5.10;;
8716;SDS011;4395;48.554;8.820;2023-10-19T06:43:27;5.72;;;5.10;;
8716;SDS011;4395;48.554;8.820;2023-10-19T06:45:34;5.30;;;4.60;;
8716;SDS011;4395;48.554;8.820;2023-10-19T06:47:36;6.00;;;5.20;;
8716;SDS011;4395;48.554;8.820;2023-10-19T06:49:39;7.55;;;5.10;;
8716;SDS011;4395;48.554;8.820;2023-10-19T06:51:42;7.47;;;5.15;;
8716;SDS011;4395;48.554;8.820;2023-10-19T06:53:47;6.63;;;5.25;;
8716;SDS011;4395;48.554;8.820;2023-10-19T06:55:50;6.75;;;5.72;;
8716;SDS011;4395;48.554;8.820;2023-10-19T06:57:54;5.65;;;5.05;;
8716;SDS011;4395;48.554;8.820;2023-10-19T06:59:57;6.38;;;4.95;;
8716;SDS011;4395;48.554;8.820;2023-10-19T07:02:00;8.10;;;5.22;;
8716;SDS011;4395;48.554;8.820;2023-10-19T07:04:03;6.00;;;5.03;;
8716;SDS011;4395;48.554;8.820;2023-10-19T07:06:05;5.83;;;4.50;;
8716;SDS011;4395;48.554;8.820;2023-10-19T07:08:14;5.40;;;4.60;;
8716;SDS011;4395;48.554;8.820;2023-10-19T07:10:19;5.87;;;4.57;;
8716;SDS011;4395;48.554;8.820;2023-10-19T07:12:22;5.47;;;4.50;;
8716;SDS011;4395;48.554;8.820;2023-10-19T07:14:25;5.22;;;4.55;;
8716;SDS011;4395;48.554;8.820;2023-10-19T07:16:28;6.30;;;4.67;;
8716;SDS011;4395;48.554;8.820;2023-10-19T07:18:31;6.67;;;4.83;;
8716;SDS011;4395;48.554;8.820;2023-10-19T07:20:34;5.80;;;5.00;;
8716;SDS011;4395;48.554;8.820;2023-10-19T07:22:37;5.73;;;4.50;;
8716;SDS011;4395;48.554;8.820;2023-10-19T07:24:40;5.00;;;4.50;;
8716;SDS011;4395;48.554;8.820;2023-10-19T07:26:44;5.57;;;4.63;;
8716;SDS011;4395;48.554;8.820;2023-10-19T07:29:05;8.40;;;5.03;;
8716;SDS011;4395;48.554;8.820;2023-10-19T07:31:11;4.70;;;4.10;;
8716;SDS011;4395;48.554;8.820;2023-10-19T07:33:17;4.30;;;3.90;;
8716;SDS011;4395;48.554;8.820;2023-10-19T07:35:21;6.63;;;4.10;;
8716;SDS011;4395;48.554;8.820;2023-10-19T07:37:24;4.80;;;4.03;;
8716;SDS011;4395;48.554;8.820;2023-10-19T07:39:28;5.93;;;4.20;;
8716;SDS011;4395;48.554;8.820;2023-10-19T07:41:31;5.40;;;4.40;;
8716;SDS011;4395;48.554;8.820;2023-10-19T07:43:39;5.93;;;4.10;;
8716;SDS011;4395;48.554;8.820;2023-10-19T07:45:42;5.43;;;4.93;;
8716;SDS011;4395;48.554;8.820;2023-10-19T07:47:45;6.43;;;4.60;;
8716;SDS011;4395;48.554;8.820;2023-10-19T07:49:48;7.03;;;4.47;;
8716;SDS011;4395;48.554;8.820;2023-10-19T07:51:53;5.35;;;4.85;;
8716;SDS011;4395;48.554;8.820;2023-10-19T07:53:59;8.70;;;4.63;;
8716;SDS011;4395;48.554;8.820;2023-10-19T07:56:01;5.77;;;5.00;;
8716;SDS011;4395;48.554;8.820;2023-10-19T07:58:04;5.93;;;5.17;;
8716;SDS011;4395;48.554;8.820;2023-10-19T08:00:09;5.73;;;4.60;;
8716;SDS011;4395;48.554;8.820;2023-10-19T08:02:15;6.93;;;5.40;;
8716;SDS011;4395;48.554;8.820;2023-10-19T08:04:18;5.07;;;4.50;;
8716;SDS011;4395;48.554;8.820;2023-10-19T08:06:20;6.20;;;4.63;;
8716;SDS011;4395;48.554;8.820;2023-10-19T08:08:23;6.43;;;4.87;;
8716;SDS011;4395;48.554;8.820;2023-10-19T08:10:26;6.10;;;4.80;;
8716;SDS011;4395;48.554;8.820;2023-10-19T08:12:30;6.17;;;4.60;;
8716;SDS011;4395;48.554;8.820;2023-10-19T08:14:34;5.33;;;4.60;;
8716;SDS011;4395;48.554;8.820;2023-10-19T08:16:38;6.83;;;4.73;;
8716;SDS011;4395;48.554;8.820;2023-10-19T08:18:43;9.50;;;4.80;;
8716;SDS011;4395;48.554;8.820;2023-10-19T08:20:45;5.13;;;4.63;;
8716;SDS011;4395;48.554;8.820;2023-10-19T08:22:50;5.57;;;4.50;;
8716;SDS011;4395;48.554;8.820;2023-10-19T08:24:54;6.83;;;4.93;;
8716;SDS011;4395;48.554;8.820;2023-10-19T08:26:56;7.57;;;5.00;;
8716;SDS011;4395;48.554;8.820;2023-10-19T08:28:59;5.20;;;4.30;;
8716;SDS011;4395;48.554;8.820;2023-10-19T08:31:02;5.03;;;4.50;;
8716;SDS011;4395;48.554;8.820;2023-10-19T08:33:07;5.10;;;4.00;;
8716;SDS011;4395;48.554;8.820;2023-10-19T08:35:10;6.47;;;5.03;;
8716;SDS011;4395;48.554;8.820;2023-10-19T08:37:13;4.40;;;4.00;;
8716;SDS011;4395;48.554;8.820;2023-10-19T08:39:16;6.73;;;5.00;;
8716;SDS011;4395;48.554;8.820;2023-10-19T08:41:19;5.27;;;4.27;;
8716;SDS011;4395;48.554;8.820;2023-10-19T08:43:22;5.00;;;4.00;;
8716;SDS011;4395;48.554;8.820;2023-10-19T08:45:27;4.60;;;4.03;;
8716;SDS011;4395;48.554;8.820;2023-10-19T08:47:30;4.37;;;3.87;;
8716;SDS011;4395;48.554;8.820;2023-10-19T08:49:34;4.27;;;3.80;;
8716;SDS011;4395;48.554;8.820;2023-10-19T08:51:38;6.37;;;4.40;;
8716;SDS011;4395;48.554;8.820;2023-10-19T08:53:41;6.27;;;4.33;;
8716;SDS011;4395;48.554;8.820;2023-10-19T08:55:45;8.13;;;5.13;;
8716;SDS011;4395;48.554;8.820;2023-10-19T08:57:51;4.60;;;4.17;;
8716;SDS011;4395;48.554;8.820;2023-10-19T08:59:54;15.03;;;10.63;;
8716;SDS011;4395;48.554;8.820;2023-10-19T09:02:00;8.23;;;4.57;;
8716;SDS011;4395;48.554;8.820;2023-10-19T09:04:04;6.87;;;4.07;;
8716;SDS011;4395;48.554;8.820;2023-10-19T09:06:10;5.70;;;4.30;;
8716;SDS011;4395;48.554;8.820;2023-10-19T09:08:14;4.33;;;3.70;;
8716;SDS011;4395;48.554;8.820;2023-10-19T09:10:18;4.47;;;4.07;;
8716;SDS011;4395;48.554;8.820;2023-10-19T09:12:23;5.00;;;3.70;;
8716;SDS011;4395;48.554;8.820;2023-10-19T09:14:33;6.53;;;4.10;;
8716;SDS011;4395;48.554;8.820;2023-10-19T09:16:37;4.93;;;3.97;;
8716;SDS011;4395;48.554;8.820;2023-10-19T09:18:40;4.40;;;4.00;;
8716;SDS011;4395;48.554;8.820;2023-10-19T09:20:43;4.20;;;3.80;;
8716;SDS011;4395;48.554;8.820;2023-10-19T09:22:57;4.13;;;3.80;;
8716;SDS011;4395;48.554;8.820;2023-10-19T09:24:59;4.57;;;3.90;;
8716;SDS011;4395;48.554;8.820;2023-10-19T09:27:05;5.07;;;4.30;;
8716;SDS011;4395;48.554;8.820;2023-10-19T09:29:09;5.30;;;4.00;;
8716;SDS011;4395;48.554;8.820;2023-10-19T09:31:19;6.00;;;3.70;;
8716;SDS011;4395;48.554;8.820;2023-10-19T09:33:26;4.07;;;3.77;;
8716;SDS011;4395;48.554;8.820;2023-10-19T09:35:30;6.27;;;3.87;;
8716;SDS011;4395;48.554;8.820;2023-10-19T09:37:33;5.63;;;3.73;;
8716;SDS011;4395;48.554;8.820;2023-10-19T09:39:38;4.17;;;3.60;;
8716;SDS011;4395;48.554;8.820;2023-10-19T09:41:44;4.27;;;3.40;;
8716;SDS011;4395;48.554;8.820;2023-10-19T09:43:49;3.97;;;3.30;;
8716;SDS011;4395;48.554;8.820;2023-10-19T09:45:53;5.60;;;4.07;;
8716;SDS011;4395;48.554;8.820;2023-10-19T09:48:00;4.83;;;3.67;;
8716;SDS011;4395;48.554;8.820;2023-10-19T09:50:08;5.23;;;3.73;;
8716;SDS011;4395;48.554;8.820;2023-10-19T09:52:12;4.80;;;4.07;;
8716;SDS011;4395;48.554;8.820;2023-10-19T09:54:17;5.03;;;4.37;;
8716;SDS011;4395;48.554;8.820;2023-10-19T09:56:32;4.20;;;3.80;;
8716;SDS011;4395;48.554;8.820;2023-10-19T09:58:40;4.70;;;3.73;;
8716;SDS011;4395;48.554;8.820;2023-10-19T10:00:47;4.27;;;3.87;;
8716;SDS011;4395;48.554;8.820;2023-10-19T10:02:52;4.27;;;3.87;;
8716;SDS011;4395;48.554;8.820;2023-10-19T10:04:57;4.57;;;3.53;;
8716;SDS011;4395;48.554;8.820;2023-10-19T10:07:01;3.90;;;3.50;;
8716;SDS011;4395;48.554;8.820;2023-10-19T10:09:07;5.50;;;3.70;;
8716;SDS011;4395;48.554;8.820;2023-10-19T10:11:20;5.30;;;4.00;;
8716;SDS011;4395;48.554;8.820;2023-10-19T10:13:38;3.80;;;3.30;;
8716;SDS011;4395;48.554;8.820;2023-10-19T10:15:42;4.50;;;4.07;;
8716;SDS011;4395;48.554;8.820;2023-10-19T10:17:45;5.17;;;4.40;;
8716;SDS011;4395;48.554;8.820;2023-10-19T10:19:56;4.63;;;4.23;;
8716;SDS011;4395;48.554;8.820;2023-10-19T10:22:32;3.43;;;3.10;;
8716;SDS011;4395;48.554;8.820;2023-10-19T10:24:35;3.67;;;3.30;;
8716;SDS011;4395;48.554;8.820;2023-10-19T10:29:09;3.63;;;3.27;;
8716;SDS011;4395;48.554;8.820;2023-10-19T10:31:20;4.50;;;3.50;;
8716;SDS011;4395;48.554;8.820;2023-10-19T10:33:43;3.50;;;3.20;;
8716;SDS011;4395;48.554;8.820;2023-10-19T10:35:53;5.60;;;3.70;;
8716;SDS011;4395;48.554;8.820;2023-10-19T10:37:55;3.77;;;3.47;;
8716;SDS011;4395;48.554;8.820;2023-10-19T10:39:58;6.90;;;4.03;;
8716;SDS011;4395;48.554;8.820;2023-10-19T10:42:02;3.90;;;3.60;;
8716;SDS011;4395;48.554;8.820;2023-10-19T10:44:06;5.47;;;4.77;;
8716;SDS011;4395;48.554;8.820;2023-10-19T10:46:10;4.47;;;4.07;;
8716;SDS011;4395;48.554;8.820;2023-10-19T10:48:12;3.87;;;3.43;;
8716;SDS011;4395;48.554;8.820;2023-10-19T10:50:19;4.07;;;3.63;;
8716;SDS011;4395;48.554;8.820;2023-10-19T10:52:25;5.50;;;3.47;;
8716;SDS011;4395;48.554;8.820;2023-10-19T10:54:30;5.93;;;4.20;;
8716;SDS011;4395;48.554;8.820;2023-10-19T10:56:39;6.83;;;4.30;;
8716;SDS011;4395;48.554;8.820;2023-10-19T10:58:43;5.17;;;4.10;;
8716;SDS011;4395;48.554;8.820;2023-10-19T11:00:45;6.27;;;4.00;;
8716;SDS011;4395;48.554;8.820;2023-10-19T11:03:00;6.50;;;4.30;;
8716;SDS011;4395;48.554;8.820;2023-10-19T11:05:05;6.00;;;4.20;;
8716;SDS011;4395;48.554;8.820;2023-10-19T11:07:17;6.90;;;4.13;;
8716;SDS011;4395;48.554;8.820;2023-10-19T11:09:21;5.57;;;4.43;;
8716;SDS011;4395;48.554;8.820;2023-10-19T11:11:24;6.20;;;4.47;;
8716;SDS011;4395;48.554;8.820;2023-10-19T11:13:27;6.07;;;3.90;;
8716;SDS011;4395;48.554;8.820;2023-10-19T11:15:32;9.33;;;4.43;;
8716;SDS011;4395;48.554;8.820;2023-10-19T11:17:41;5.33;;;4.57;;
8716;SDS011;4395;48.554;8.820;2023-10-19T11:19:46;4.80;;;4.40;;
8716;SDS011;4395;48.554;8.820;2023-10-19T11:21:52;12.63;;;8.30;;
8716;SDS011;4395;48.554;8.820;2023-10-19T11:24:01;14.53;;;8.93;;
8716;SDS011;4395;48.554;8.820;2023-10-19T11:26:04;24.87;;;10.47;;
8716;SDS011;4395;48.554;8.820;2023-10-19T11:28:15;17.30;;;8.27;;
8716;SDS011;4395;48.554;8.820;2023-10-19T11:30:22;6.33;;;5.30;;
8716;SDS011;4395;48.554;8.820;2023-10-19T11:32:26;6.93;;;4.80;;
8716;SDS011;4395;48.554;8.820;2023-10-19T11:34:39;6.20;;;4.17;;
8716;SDS011;4395;48.554;8.820;2023-10-19T11:36:47;6.43;;;5.23;;
8716;SDS011;4395;48.554;8.820;2023-10-19T11:38:50;6.93;;;4.50;;
8716;SDS011;4395;48.554;8.820;2023-10-19T11:40:53;6.80;;;4.50;;
8716;SDS011;4395;48.554;8.820;2023-10-19T11:42:55;4.87;;;4.27;;
8716;SDS011;4395;48.554;8.820;2023-10-19T11:44:59;5.53;;;4.60;;
8716;SDS011;4395;48.554;8.820;2023-10-19T11:47:01;5.47;;;4.97;;
8716;SDS011;4395;48.554;8.820;2023-10-19T11:49:04;9.47;;;8.47;;
8716;SDS011;4395;48.554;8.820;2023-10-19T11:51:10;11.13;;;8.83;;
8716;SDS011;4395;48.554;8.820;2023-10-19T11:53:16;16.57;;;10.90;;
8716;SDS011;4395;48.554;8.820;2023-10-19T11:55:19;6.13;;;5.30;;
8716;SDS011;4395;48.554;8.820;2023-10-19T11:57:23;6.53;;;5.70;;
8716;SDS011;4395;48.554;8.820;2023-10-19T11:59:26;5.87;;;5.30;;
8716;SDS011;4395;48.554;8.820;2023-10-19T12:01:28;5.20;;;4.17;;
8716;SDS011;4395;48.554;8.820;2023-10-19T12:03:32;5.60;;;4.77;;
8716;SDS011;4395;48.554;8.820;2023-10-19T12:05:37;7.47;;;5.90;;
8716;SDS011;4395;48.554;8.820;2023-10-19T12:07:40;6.00;;;4.93;;
8716;SDS011;4395;48.554;8.820;2023-10-19T12:09:47;5.03;;;4.30;;
8716;SDS011;4395;48.554;8.820;2023-10-19T12:11:51;6.00;;;4.80;;
8716;SDS011;4395;48.554;8.820;2023-10-19T12:13:55;5.00;;;4.50;;
8716;SDS011;4395;48.554;8.820;2023-10-19T12:16:00;6.70;;;6.00;;
8716;SDS011;4395;48.554;8.820;2023-10-19T12:18:06;6.30;;;5.60;;
8716;SDS011;4395;48.554;8.820;2023-10-19T12:20:09;7.43;;;4.43;;
8716;SDS011;4395;48.554;8.820;2023-10-19T12:22:15;5.10;;;4.67;;
8716;SDS011;4395;48.554;8.820;2023-10-19T12:24:18;5.27;;;4.40;;
8716;SDS011;4395;48.554;8.820;2023-10-19T12:26:23;10.50;;;9.17;;
8716;SDS011;4395;48.554;8.820;2023-10-19T12:28:26;10.43;;;7.90;;
8716;SDS011;4395;48.554;8.820;2023-10-19T12:30:29;8.03;;;6.80;;
8716;SDS011;4395;48.554;8.820;2023-10-19T12:32:33;5.83;;;4.80;;
8716;SDS011;4395;48.554;8.820;2023-10-19T12:34:39;5.40;;;4.40;;
8716;SDS011;4395;48.554;8.820;2023-10-19T12:36:43;4.43;;;4.00;;
8716;SDS011;4395;48.554;8.820;2023-10-19T12:38:48;5.10;;;4.23;;
8716;SDS011;4395;48.554;8.820;2023-10-19T12:40:51;5.77;;;4.90;;
8716;SDS011;4395;48.554;8.820;2023-10-19T12:42:56;5.10;;;4.60;;
8716;SDS011;4395;48.554;8.820;2023-10-19T12:45:01;4.97;;;4.43;;
8716;SDS011;4395;48.554;8.820;2023-10-19T12:47:04;7.23;;;4.90;;
8716;SDS011;4395;48.554;8.820;2023-10-19T12:49:11;8.00;;;5.30;;
8716;SDS011;4395;48.554;8.820;2023-10-19T12:51:17;5.93;;;4.90;;
8716;SDS011;4395;48.554;8.820;2023-10-19T12:53:24;5.70;;;5.00;;
8716;SDS011;4395;48.554;8.820;2023-10-19T12:55:27;5.20;;;4.70;;
8716;SDS011;4395;48.554;8.820;2023-10-19T12:57:29;4.97;;;4.47;;
8716;SDS011;4395;48.554;8.820;2023-10-19T12:59:35;6.50;;;4.67;;
8716;SDS011;4395;48.554;8.820;2023-10-19T13:01:39;5.90;;;4.80;;